sensor_id;sensor_type;location;lat;lon;timestamp;pressure;altitude;pressure_sealevel;temperature;humidity
21658;BME280;10990;48.174;9.782;2023-04-26T00:00:16;93808.97;;;6.49;100.00
21658;BME280;10990;48.174;9.782;2023-04-26T00:02:43;93820.66;;;6.38;100.00
21658;BME280;10990;48.174;9.782;2023-04-26T00:05:10;93849.38;;;6.40;100.00
21658;BME280;10990;48.174;9.782;2023-04-26T00:07:37;93878.06;;;6.41;100.00
21658;BME280;10990;48.174;9.782;2023-04-26T00:10:04;93883.50;;;6.40;100.00
21658;BME280;10990;48.174;9.782;2023-04-26T00:12:31;93893.81;;;6.49;100.00
21658;BME280;10990;48.174;9.782;2023-04-26T00:14:59;93912.38;;;6.40;100.00
21658;BME280;10990;48.174;9.782;2023-04-26T00:17:26;93905.13;;;6.50;100.00
21658;BME280;10990;48.174;9.782;2023-04-26T00:19:53;93914.34;;;6.46;100.00
21658;BME280;10990;48.174;9.782;2023-04-26T00:22:22;93949.44;;;6.53;100.00
21658;BME280;10990;48.174;9.782;2023-04-26T00:24:48;93957.16;;;6.55;100.00
21658;BME280;10990;48.174;9.782;2023-04-26T00:27:15;93955.19;;;6.65;100.00
21658;BME280;10990;48.174;9.782;2023-04-26T00:29:42;93962.09;;;6.33;100.00
21658;BME280;10990;48.174;9.782;2023-04-26T00:32:10;93949.78;;;6.50;100.00
21658;BME280;10990;48.174;9.782;2023-04-26T00:34:37;93936.63;;;6.50;100.00
21658;BME280;10990;48.174;9.782;2023-04-26T00:37:04;93949.16;;;6.32;100.00
21658;BME280;10990;48.174;9.782;2023-04-26T00:39:31;93941.59;;;6.45;100.00
21658;BME280;10990;48.174;9.782;2023-04-26T00:41:58;93954.56;;;6.38;100.00
21658;BME280;10990;48.174;9.782;2023-04-26T00:44:25;93942.41;;;6.54;100.00
21658;BME280;10990;48.174;9.782;2023-04-26T00:46:52;93967.19;;;6.43;100.00
21658;BME280;10990;48.174;9.782;2023-04-26T00:49:22;93981.63;;;6.39;100.00
21658;BME280;10990;48.174;9.782;2023-04-26T00:51:51;93971.22;;;6.70;100.00
21658;BME280;10990;48.174;9.782;2023-04-26T00:54:19;93977.63;;;6.76;100.00
21658;BME280;10990;48.174;9.782;2023-04-26T00:56:46;93993.59;;;6.66;100.00
21658;BME280;10990;48.174;9.782;2023-04-26T00:59:17;93981.75;;;6.70;100.00
21658;BME280;10990;48.174;9.782;2023-04-26T01:01:44;93963.34;;;6.70;100.00
21658;BME280;10990;48.174;9.782;2023-04-26T01:04:13;93970.44;;;6.53;100.00
21658;BME280;10990;48.174;9.782;2023-04-26T01:06:42;93947.56;;;6.78;100.00
21658;BME280;10990;48.174;9.782;2023-04-26T01:09:09;93951.41;;;6.59;100.00
21658;BME280;10990;48.174;9.782;2023-04-26T01:11:39;93946.44;;;6.64;100.00
21658;BME280;10990;48.174;9.782;2023-04-26T01:14:08;93951.69;;;6.72;100.00
21658;BME280;10990;48.174;9.782;2023-04-26T01:16:36;93952.47;;;6.81;100.00
21658;BME280;10990;48.174;9.782;2023-04-26T01:19:08;93952.19;;;6.76;100.00
21658;BME280;10990;48.174;9.782;2023-04-26T01:21:38;93958.63;;;6.57;100.00
21658;BME280;10990;48.174;9.782;2023-04-26T01:24:08;93960.94;;;6.52;100.00
21658;BME280;10990;48.174;9.782;2023-04-26T01:26:37;93944.72;;;6.40;100.00
21658;BME280;10990;48.174;9.782;2023-04-26T01:29:12;93934.88;;;6.42;100.00
21658;BME280;10990;48.174;9.782;2023-04-26T01:31:40;93906.78;;;6.51;100.00
21658;BME280;10990;48.174;9.782;2023-04-26T01:34:06;93909.56;;;6.49;100.00
21658;BME280;10990;48.174;9.782;2023-04-26T01:36:33;93913.34;;;6.47;100.00
21658;BME280;10990;48.174;9.782;2023-04-26T01:39:00;93899.38;;;6.55;100.00
21658;BME280;10990;48.174;9.782;2023-04-26T01:41:28;93882.78;;;6.62;100.00
21658;BME280;10990;48.174;9.782;2023-04-26T01:43:55;93882.16;;;6.52;100.00
21658;BME280;10990;48.174;9.782;2023-04-26T01:46:23;93863.47;;;6.39;100.00
21658;BME280;10990;48.174;9.782;2023-04-26T01:48:50;93835.72;;;6.44;100.00
21658;BME280;10990;48.174;9.782;2023-04-26T01:51:17;93820.09;;;6.59;100.00
21658;BME280;10990;48.174;9.782;2023-04-26T01:53:43;93822.41;;;6.54;100.00
21658;BME280;10990;48.174;9.782;2023-04-26T01:56:10;93815.19;;;6.56;100.00
21658;BME280;10990;48.174;9.782;2023-04-26T01:58:38;93812.59;;;6.48;100.00
21658;BME280;10990;48.174;9.782;2023-04-26T02:01:06;93801.78;;;6.43;100.00
21658;BME280;10990;48.174;9.782;2023-04-26T02:03:33;93798.47;;;6.41;100.00
21658;BME280;10990;48.174;9.782;2023-04-26T02:06:00;93795.88;;;6.33;100.00
21658;BME280;10990;48.174;9.782;2023-04-26T02:08:27;93798.19;;;6.27;100.00
21658;BME280;10990;48.174;9.782;2023-04-26T02:10:54;93790.34;;;6.19;100.00
21658;BME280;10990;48.174;9.782;2023-04-26T02:13:21;93784.59;;;6.24;100.00
21658;BME280;10990;48.174;9.782;2023-04-26T02:15:50;93776.09;;;6.14;100.00
21658;BME280;10990;48.174;9.782;2023-04-26T02:18:17;93760.19;;;6.15;100.00
21658;BME280;10990;48.174;9.782;2023-04-26T02:20:46;93735.47;;;6.01;100.00
21658;BME280;10990;48.174;9.782;2023-04-26T02:23:13;93725.44;;;6.05;100.00
21658;BME280;10990;48.174;9.782;2023-04-26T02:25:44;93703.47;;;6.06;100.00
21658;BME280;10990;48.174;9.782;2023-04-26T02:28:11;93692.94;;;6.14;100.00
21658;BME280;10990;48.174;9.782;2023-04-26T02:30:38;93683.56;;;6.20;100.00
21658;BME280;10990;48.174;9.782;2023-04-26T02:33:06;93676.47;;;6.28;100.00
21658;BME280;10990;48.174;9.782;2023-04-26T02:35:34;93681.53;;;6.30;100.00
21658;BME280;10990;48.174;9.782;2023-04-26T02:38:03;93703.94;;;6.10;100.00
21658;BME280;10990;48.174;9.782;2023-04-26T02:40:30;93689.78;;;6.19;100.00
21658;BME280;10990;48.174;9.782;2023-04-26T02:42:57;93675.66;;;6.28;100.00
21658;BME280;10990;48.174;9.782;2023-04-26T02:45:23;93681.44;;;6.15;100.00
21658;BME280;10990;48.174;9.782;2023-04-26T02:47:50;93669.75;;;6.26;100.00
21658;BME280;10990;48.174;9.782;2023-04-26T02:50:18;93650.22;;;6.28;100.00
21658;BME280;10990;48.174;9.782;2023-04-26T02:52:46;93661.91;;;6.18;100.00
21658;BME280;10990;48.174;9.782;2023-04-26T02:55:13;93649.25;;;6.21;100.00
21658;BME280;10990;48.174;9.782;2023-04-26T02:57:41;93645.28;;;6.34;100.00
21658;BME280;10990;48.174;9.782;2023-04-26T03:00:09;93650.91;;;6.22;100.00
21658;BME280;10990;48.174;9.782;2023-04-26T03:02:38;93639.03;;;6.35;100.00
21658;BME280;10990;48.174;9.782;2023-04-26T03:05:05;93631.31;;;6.33;100.00
21658;BME280;10990;48.174;9.782;2023-04-26T03:07:35;93621.81;;;6.32;100.00
21658;BME280;10990;48.174;9.782;2023-04-26T03:10:02;93626.66;;;6.20;100.00
21658;BME280;10990;48.174;9.782;2023-04-26T03:12:30;93623.41;;;6.10;100.00
21658;BME280;10990;48.174;9.782;2023-04-26T03:14:58;93620.66;;;6.03;100.00
21658;BME280;10990;48.174;9.782;2023-04-26T03:17:28;93595.97;;;6.21;100.00
21658;BME280;10990;48.174;9.782;2023-04-26T03:19:56;93609.72;;;6.23;100.00
21658;BME280;10990;48.174;9.782;2023-04-26T03:22:22;93614.75;;;6.01;100.00
21658;BME280;10990;48.174;9.782;2023-04-26T03:24:50;93589.91;;;6.20;100.00
21658;BME280;10990;48.174;9.782;2023-04-26T03:27:18;93592.22;;;6.15;100.00
21658;BME280;10990;48.174;9.782;2023-04-26T03:29:45;93572.28;;;6.29;100.00
21658;BME280;10990;48.174;9.782;2023-04-26T03:32:12;93578.03;;;6.24;100.00
21658;BME280;10990;48.174;9.782;2023-04-26T03:34:38;93568.78;;;6.37;100.00
21658;BME280;10990;48.174;9.782;2023-04-26T03:37:05;93574.72;;;6.31;100.00
21658;BME280;10990;48.174;9.782;2023-04-26T03:39:32;93572.63;;;6.26;100.00
21658;BME280;10990;48.174;9.782;2023-04-26T03:42:00;93578.34;;;6.29;100.00
21658;BME280;10990;48.174;9.782;2023-04-26T03:44:28;93590.72;;;6.21;100.00
21658;BME280;10990;48.174;9.782;2023-04-26T03:46:55;93594.50;;;6.18;100.00
21658;BME280;10990;48.174;9.782;2023-04-26T03:49:22;93588.13;;;6.13;100.00
21658;BME280;10990;48.174;9.782;2023-04-26T03:51:48;93588.25;;;6.19;100.00
21658;BME280;10990;48.174;9.782;2023-04-26T03:54:15;93575.25;;;6.26;100.00
21658;BME280;10990;48.174;9.782;2023-04-26T03:56:42;93607.19;;;6.06;100.00
21658;BME280;10990;48.174;9.782;2023-04-26T03:59:11;93592.28;;;6.07;100.00
21658;BME280;10990;48.174;9.782;2023-04-26T04:01:38;93594.09;;;6.06;100.00
21658;BME280;10990;48.174;9.782;2023-04-26T04:04:05;93576.59;;;6.22;100.00
21658;BME280;10990;48.174;9.782;2023-04-26T04:06:32;93579.03;;;6.00;100.00
21658;BME280;10990;48.174;9.782;2023-04-26T04:08:59;93567.72;;;6.00;100.00
21658;BME280;10990;48.174;9.782;2023-04-26T04:11:27;93571.50;;;5.97;100.00
21658;BME280;10990;48.174;9.782;2023-04-26T04:13:53;93558.91;;;6.16;100.00
21658;BME280;10990;48.174;9.782;2023-04-26T04:16:22;93568.44;;;6.17;100.00
21658;BME280;10990;48.174;9.782;2023-04-26T04:18:49;93575.88;;;6.05;100.00
21658;BME280;10990;48.174;9.782;2023-04-26T04:21:16;93581.13;;;6.05;100.00
21658;BME280;10990;48.174;9.782;2023-04-26T04:23:43;93580.03;;;5.91;100.00
21658;BME280;10990;48.174;9.782;2023-04-26T04:26:11;93571.13;;;6.09;100.00
21658;BME280;10990;48.174;9.782;2023-04-26T04:28:39;93579.38;;;5.97;100.00
21658;BME280;10990;48.174;9.782;2023-04-26T04:31:06;93576.91;;;5.96;100.00
21658;BME280;10990;48.174;9.782;2023-04-26T04:33:36;93570.88;;;5.87;100.00
21658;BME280;10990;48.174;9.782;2023-04-26T04:36:04;93568.41;;;5.85;100.00
21658;BME280;10990;48.174;9.782;2023-04-26T04:38:32;93546.97;;;6.13;100.00
21658;BME280;10990;48.174;9.782;2023-04-26T04:41:02;93547.91;;;6.20;100.00
21658;BME280;10990;48.174;9.782;2023-04-26T04:43:32;93566.97;;;6.14;100.00
21658;BME280;10990;48.174;9.782;2023-04-26T04:45:59;93564.00;;;6.17;100.00
21658;BME280;10990;48.174;9.782;2023-04-26T04:48:25;93563.94;;;6.25;100.00
21658;BME280;10990;48.174;9.782;2023-04-26T04:50:55;93562.53;;;6.38;100.00
21658;BME280;10990;48.174;9.782;2023-04-26T04:53:23;93572.75;;;6.33;100.00
21658;BME280;10990;48.174;9.782;2023-04-26T04:55:49;93585.41;;;6.29;100.00
21658;BME280;10990;48.174;9.782;2023-04-26T04:58:16;93579.84;;;6.24;100.00
21658;BME280;10990;48.174;9.782;2023-04-26T05:00:43;93586.69;;;6.33;100.00
21658;BME280;10990;48.174;9.782;2023-04-26T05:03:30;93585.41;;;6.29;100.00
21658;BME280;10990;48.174;9.782;2023-04-26T05:06:00;93598.59;;;6.21;100.00
21658;BME280;10990;48.174;9.782;2023-04-26T05:08:28;93588.84;;;6.29;100.00
21658;BME280;10990;48.174;9.782;2023-04-26T05:10:58;93590.97;;;6.34;100.00
21658;BME280;10990;48.174;9.782;2023-04-26T05:13:25;93608.63;;;6.17;100.00
21658;BME280;10990;48.174;9.782;2023-04-26T05:15:53;93601.16;;;6.29;100.00
21658;BME280;10990;48.174;9.782;2023-04-26T05:18:19;93622.66;;;6.24;100.00
21658;BME280;10990;48.174;9.782;2023-04-26T05:20:47;93631.13;;;6.12;100.00
21658;BME280;10990;48.174;9.782;2023-04-26T05:23:15;93637.09;;;5.97;100.00
21658;BME280;10990;48.174;9.782;2023-04-26T05:25:42;93600.09;;;6.38;100.00
21658;BME280;10990;48.174;9.782;2023-04-26T05:28:32;93603.13;;;6.50;100.00
21658;BME280;10990;48.174;9.782;2023-04-26T05:31:18;93598.41;;;6.68;100.00
21658;BME280;10990;48.174;9.782;2023-04-26T05:34:04;93606.69;;;6.80;100.00
21658;BME280;10990;48.174;9.782;2023-04-26T05:36:35;93602.63;;;6.92;100.00
21658;BME280;10990;48.174;9.782;2023-04-26T05:39:03;93612.31;;;6.92;100.00
21658;BME280;10990;48.174;9.782;2023-04-26T05:41:32;93633.16;;;6.79;100.00
21658;BME280;10990;48.174;9.782;2023-04-26T05:43:59;93632.78;;;6.82;100.00
21658;BME280;10990;48.174;9.782;2023-04-26T05:46:26;93643.34;;;6.96;100.00
21658;BME280;10990;48.174;9.782;2023-04-26T05:48:53;93652.84;;;6.97;100.00
21658;BME280;10990;48.174;9.782;2023-04-26T05:51:20;93668.63;;;6.97;100.00
21658;BME280;10990;48.174;9.782;2023-04-26T05:53:47;93663.09;;;7.30;100.00
21658;BME280;10990;48.174;9.782;2023-04-26T05:56:16;93682.41;;;7.37;100.00
21658;BME280;10990;48.174;9.782;2023-04-26T05:58:43;93737.75;;;6.98;100.00
21658;BME280;10990;48.174;9.782;2023-04-26T06:01:10;93737.63;;;7.14;100.00
21658;BME280;10990;48.174;9.782;2023-04-26T06:03:38;93765.03;;;7.20;100.00
21658;BME280;10990;48.174;9.782;2023-04-26T06:06:05;93795.41;;;7.23;100.00
21658;BME280;10990;48.174;9.782;2023-04-26T06:08:33;93825.69;;;7.18;100.00
21658;BME280;10990;48.174;9.782;2023-04-26T06:11:00;93826.91;;;7.31;100.00
21658;BME280;10990;48.174;9.782;2023-04-26T06:13:29;93833.94;;;7.38;100.00
21658;BME280;10990;48.174;9.782;2023-04-26T06:15:59;93836.38;;;7.40;100.00
21658;BME280;10990;48.174;9.782;2023-04-26T06:18:26;93853.13;;;7.47;100.00
21658;BME280;10990;48.174;9.782;2023-04-26T06:20:52;93870.00;;;7.30;100.00
21658;BME280;10990;48.174;9.782;2023-04-26T06:23:19;93867.81;;;7.33;100.00
21658;BME280;10990;48.174;9.782;2023-04-26T06:25:46;93874.34;;;7.37;100.00
21658;BME280;10990;48.174;9.782;2023-04-26T06:28:13;93886.22;;;7.33;100.00
21658;BME280;10990;48.174;9.782;2023-04-26T06:30:42;93921.06;;;7.04;100.00
21658;BME280;10990;48.174;9.782;2023-04-26T06:33:08;93955.06;;;6.97;100.00
21658;BME280;10990;48.174;9.782;2023-04-26T06:35:38;93944.47;;;7.22;100.00
21658;BME280;10990;48.174;9.782;2023-04-26T06:38:06;93998.59;;;7.00;100.00
21658;BME280;10990;48.174;9.782;2023-04-26T06:40:35;94006.06;;;7.28;100.00
21658;BME280;10990;48.174;9.782;2023-04-26T06:43:02;94034.47;;;7.40;100.00
21658;BME280;10990;48.174;9.782;2023-04-26T06:45:59;94069.59;;;7.48;100.00
21658;BME280;10990;48.174;9.782;2023-04-26T06:48:26;94095.47;;;7.19;100.00
21658;BME280;10990;48.174;9.782;2023-04-26T06:50:53;94112.06;;;7.28;100.00
21658;BME280;10990;48.174;9.782;2023-04-26T06:53:20;94121.56;;;7.46;100.00
21658;BME280;10990;48.174;9.782;2023-04-26T06:55:47;94142.91;;;7.51;100.00
21658;BME280;10990;48.174;9.782;2023-04-26T06:58:14;94155.81;;;7.77;100.00
21658;BME280;10990;48.174;9.782;2023-04-26T07:00:40;94185.22;;;8.36;100.00
21658;BME280;10990;48.174;9.782;2023-04-26T07:03:08;94230.72;;;8.14;100.00
21658;BME280;10990;48.174;9.782;2023-04-26T07:05:35;94290.91;;;7.69;100.00
21658;BME280;10990;48.174;9.782;2023-04-26T07:08:02;94323.94;;;7.47;100.00
21658;BME280;10990;48.174;9.782;2023-04-26T07:10:28;94341.22;;;7.58;100.00
21658;BME280;10990;48.174;9.782;2023-04-26T07:12:55;94342.97;;;7.25;100.00
21658;BME280;10990;48.174;9.782;2023-04-26T07:15:22;94347.13;;;7.35;100.00
21658;BME280;10990;48.174;9.782;2023-04-26T07:17:49;94362.91;;;7.68;100.00
21658;BME280;10990;48.174;9.782;2023-04-26T07:20:17;94405.22;;;7.83;100.00
21658;BME280;10990;48.174;9.782;2023-04-26T07:22:47;94417.03;;;7.79;100.00
21658;BME280;10990;48.174;9.782;2023-04-26T07:25:13;94431.50;;;7.91;100.00
21658;BME280;10990;48.174;9.782;2023-04-26T07:27:40;94454.91;;;8.27;100.00
21658;BME280;10990;48.174;9.782;2023-04-26T07:30:08;94477.06;;;9.46;100.00
21658;BME280;10990;48.174;9.782;2023-04-26T07:32:35;94563.88;;;10.19;100.00
21658;BME280;10990;48.174;9.782;2023-04-26T07:35:05;94729.66;;;10.73;100.00
21658;BME280;10990;48.174;9.782;2023-04-26T07:37:34;94812.06;;;12.31;100.00
21658;BME280;10990;48.174;9.782;2023-04-26T07:40:00;94990.34;;;12.56;100.00
21658;BME280;10990;48.174;9.782;2023-04-26T07:42:29;95121.94;;;11.95;100.00
21658;BME280;10990;48.174;9.782;2023-04-26T07:44:56;95193.03;;;11.66;100.00
21658;BME280;10990;48.174;9.782;2023-04-26T07:47:22;95229.59;;;11.22;100.00
21658;BME280;10990;48.174;9.782;2023-04-26T07:49:52;95215.69;;;10.95;100.00
21658;BME280;10990;48.174;9.782;2023-04-26T07:52:19;95240.69;;;10.59;100.00
21658;BME280;10990;48.174;9.782;2023-04-26T07:54:47;95254.53;;;9.66;100.00
21658;BME280;10990;48.174;9.782;2023-04-26T07:57:14;95233.06;;;9.43;100.00
21658;BME280;10990;48.174;9.782;2023-04-26T07:59:40;95202.63;;;10.09;100.00
21658;BME280;10990;48.174;9.782;2023-04-26T08:02:07;95201.81;;;10.43;100.00
21658;BME280;10990;48.174;9.782;2023-04-26T08:04:34;95241.28;;;10.36;100.00
21658;BME280;10990;48.174;9.782;2023-04-26T08:07:01;95251.16;;;10.68;100.00
21658;BME280;10990;48.174;9.782;2023-04-26T08:09:28;95305.41;;;10.20;100.00
21658;BME280;10990;48.174;9.782;2023-04-26T08:11:56;95284.59;;;10.43;100.00
21658;BME280;10990;48.174;9.782;2023-04-26T08:14:23;95330.91;;;10.47;100.00
21658;BME280;10990;48.174;9.782;2023-04-26T08:16:50;95357.56;;;9.92;100.00
21658;BME280;10990;48.174;9.782;2023-04-26T08:19:17;95364.06;;;9.98;100.00
21658;BME280;10990;48.174;9.782;2023-04-26T08:21:44;95371.44;;;10.56;100.00
21658;BME280;10990;48.174;9.782;2023-04-26T08:24:10;95417.81;;;11.11;100.00
21658;BME280;10990;48.174;9.782;2023-04-26T08:26:37;95461.38;;;10.64;100.00
21658;BME280;10990;48.174;9.782;2023-04-26T08:29:05;95433.78;;;10.67;100.00
21658;BME280;10990;48.174;9.782;2023-04-26T08:31:32;95428.97;;;10.62;100.00
21658;BME280;10990;48.174;9.782;2023-04-26T08:33:59;95407.50;;;10.65;100.00
21658;BME280;10990;48.174;9.782;2023-04-26T08:36:26;95424.47;;;10.54;100.00
21658;BME280;10990;48.174;9.782;2023-04-26T08:38:53;95443.97;;;10.53;100.00
21658;BME280;10990;48.174;9.782;2023-04-26T08:41:22;95428.34;;;10.68;100.00
21658;BME280;10990;48.174;9.782;2023-04-26T08:43:50;95422.19;;;10.34;100.00
21658;BME280;10990;48.174;9.782;2023-04-26T08:46:18;95424.59;;;9.91;100.00
21658;BME280;10990;48.174;9.782;2023-04-26T08:51:31;95414.66;;;10.73;100.00
21658;BME280;10990;48.174;9.782;2023-04-26T08:53:59;95463.53;;;11.55;100.00
21658;BME280;10990;48.174;9.782;2023-04-26T08:56:26;95481.75;;;12.91;100.00
21658;BME280;10990;48.174;9.782;2023-04-26T08:58:54;95594.72;;;13.42;100.00
21658;BME280;10990;48.174;9.782;2023-04-26T09:01:22;95620.31;;;13.43;100.00
21658;BME280;10990;48.174;9.782;2023-04-26T09:03:51;95687.16;;;12.98;100.00
21658;BME280;10990;48.174;9.782;2023-04-26T09:06:20;95706.41;;;12.07;100.00
21658;BME280;10990;48.174;9.782;2023-04-26T09:08:47;95688.09;;;11.26;100.00
21658;BME280;10990;48.174;9.782;2023-04-26T09:11:14;95653.38;;;10.12;100.00
21658;BME280;10990;48.174;9.782;2023-04-26T09:13:41;95594.69;;;9.80;100.00
21658;BME280;10990;48.174;9.782;2023-04-26T09:16:08;95561.16;;;10.36;100.00
21658;BME280;10990;48.174;9.782;2023-04-26T09:18:46;95570.19;;;10.87;100.00
21658;BME280;10990;48.174;9.782;2023-04-26T09:21:15;95613.34;;;10.88;100.00
21658;BME280;10990;48.174;9.782;2023-04-26T09:23:56;95653.72;;;10.72;100.00
21658;BME280;10990;48.174;9.782;2023-04-26T09:26:22;95652.50;;;10.66;100.00
21658;BME280;10990;48.174;9.782;2023-04-26T09:29:09;95651.00;;;11.96;100.00
21658;BME280;10990;48.174;9.782;2023-04-26T09:31:38;95709.22;;;10.99;100.00
21658;BME280;10990;48.174;9.782;2023-04-26T09:34:08;95700.28;;;11.00;100.00
21658;BME280;10990;48.174;9.782;2023-04-26T09:36:52;95705.06;;;10.97;100.00
21658;BME280;10990;48.174;9.782;2023-04-26T09:39:30;95701.41;;;12.38;100.00
21658;BME280;10990;48.174;9.782;2023-04-26T09:41:57;95731.81;;;12.52;100.00
21658;BME280;10990;48.174;9.782;2023-04-26T09:44:25;95746.41;;;12.22;100.00
21658;BME280;10990;48.174;9.782;2023-04-26T09:46:59;95734.03;;;13.64;100.00
21658;BME280;10990;48.174;9.782;2023-04-26T09:49:30;95780.28;;;13.13;100.00
21658;BME280;10990;48.174;9.782;2023-04-26T09:52:01;95789.94;;;12.37;100.00
21658;BME280;10990;48.174;9.782;2023-04-26T09:54:37;95802.72;;;12.16;100.00
21658;BME280;10990;48.174;9.782;2023-04-26T09:57:04;95791.06;;;12.34;100.00
21658;BME280;10990;48.174;9.782;2023-04-26T09:59:39;95785.41;;;13.06;100.00
21658;BME280;10990;48.174;9.782;2023-04-26T10:02:12;95796.31;;;13.29;100.00
21658;BME280;10990;48.174;9.782;2023-04-26T10:04:43;95805.81;;;13.81;100.00
21658;BME280;10990;48.174;9.782;2023-04-26T10:07:11;95814.03;;;13.29;100.00
21658;BME280;10990;48.174;9.782;2023-04-26T10:09:38;95808.66;;;13.04;100.00
21658;BME280;10990;48.174;9.782;2023-04-26T10:12:07;95819.41;;;12.60;100.00
21658;BME280;10990;48.174;9.782;2023-04-26T10:14:34;95809.28;;;13.06;100.00
21658;BME280;10990;48.174;9.782;2023-04-26T10:17:02;95821.44;;;12.14;100.00
21658;BME280;10990;48.174;9.782;2023-04-26T10:19:31;95810.34;;;12.71;100.00
21658;BME280;10990;48.174;9.782;2023-04-26T10:22:04;95819.19;;;12.88;100.00
21658;BME280;10990;48.174;9.782;2023-04-26T10:24:31;95811.72;;;13.34;100.00
21658;BME280;10990;48.174;9.782;2023-04-26T10:26:59;95804.31;;;13.70;100.00
21658;BME280;10990;48.174;9.782;2023-04-26T10:32:28;95808.94;;;13.43;100.00
21658;BME280;10990;48.174;9.782;2023-04-26T10:35:12;95798.47;;;12.91;100.00
21658;BME280;10990;48.174;9.782;2023-04-26T10:40:38;95794.44;;;12.79;100.00
21658;BME280;10990;48.174;9.782;2023-04-26T10:43:28;95806.91;;;12.52;100.00
21658;BME280;10990;48.174;9.782;2023-04-26T10:45:55;95812.19;;;12.18;100.00
21658;BME280;10990;48.174;9.782;2023-04-26T10:48:28;95808.63;;;11.48;100.00
21658;BME280;10990;48.174;9.782;2023-04-26T10:51:07;95795.97;;;11.77;100.00
21658;BME280;10990;48.174;9.782;2023-04-26T10:53:57;95792.69;;;12.01;100.00
21658;BME280;10990;48.174;9.782;2023-04-26T10:56:51;95786.75;;;13.10;100.00
21658;BME280;10990;48.174;9.782;2023-04-26T10:59:20;95783.59;;;13.15;100.00
21658;BME280;10990;48.174;9.782;2023-04-26T11:01:47;95787.16;;;13.48;100.00
21658;BME280;10990;48.174;9.782;2023-04-26T11:04:14;95778.56;;;13.79;100.00
21658;BME280;10990;48.174;9.782;2023-04-26T11:06:49;95782.16;;;14.27;100.00
21658;BME280;10990;48.174;9.782;2023-04-26T11:09:35;95785.28;;;14.55;100.00
21658;BME280;10990;48.174;9.782;2023-04-26T11:12:10;95783.41;;;14.72;100.00
21658;BME280;10990;48.174;9.782;2023-04-26T11:14:38;95784.19;;;14.08;100.00
21658;BME280;10990;48.174;9.782;2023-04-26T11:17:06;95785.34;;;13.40;100.00
21658;BME280;10990;48.174;9.782;2023-04-26T11:19:34;95786.38;;;13.80;100.00
21658;BME280;10990;48.174;9.782;2023-04-26T11:22:02;95776.69;;;14.20;100.00
21658;BME280;10990;48.174;9.782;2023-04-26T11:24:29;95783.84;;;14.28;100.00
21658;BME280;10990;48.174;9.782;2023-04-26T11:26:57;95779.34;;;14.28;100.00
21658;BME280;10990;48.174;9.782;2023-04-26T11:29:25;95784.66;;;14.28;100.00
21658;BME280;10990;48.174;9.782;2023-04-26T11:31:53;95785.69;;;14.11;100.00
21658;BME280;10990;48.174;9.782;2023-04-26T11:34:21;95782.50;;;14.24;100.00
21658;BME280;10990;48.174;9.782;2023-04-26T11:36:50;95781.88;;;13.81;100.00
21658;BME280;10990;48.174;9.782;2023-04-26T11:39:20;95783.38;;;14.08;100.00
21658;BME280;10990;48.174;9.782;2023-04-26T11:41:48;95777.53;;;13.96;100.00
21658;BME280;10990;48.174;9.782;2023-04-26T11:44:18;95783.69;;;13.56;100.00
21658;BME280;10990;48.174;9.782;2023-04-26T11:46:47;95784.53;;;13.89;100.00
21658;BME280;10990;48.174;9.782;2023-04-26T11:49:15;95778.88;;;13.67;100.00
21658;BME280;10990;48.174;9.782;2023-04-26T11:51:46;95789.16;;;12.45;100.00
21658;BME280;10990;48.174;9.782;2023-04-26T11:54:26;95775.94;;;12.61;100.00
21658;BME280;10990;48.174;9.782;2023-04-26T11:56:53;95769.94;;;13.68;100.00
21658;BME280;10990;48.174;9.782;2023-04-26T11:59:23;95756.63;;;13.85;100.00
21658;BME280;10990;48.174;9.782;2023-04-26T12:01:51;95772.25;;;13.47;100.00
21658;BME280;10990;48.174;9.782;2023-04-26T12:04:18;95776.97;;;13.19;100.00
21658;BME280;10990;48.174;9.782;2023-04-26T12:06:45;95779.41;;;12.27;100.00
21658;BME280;10990;48.174;9.782;2023-04-26T12:09:14;95775.28;;;12.59;100.00
21658;BME280;10990;48.174;9.782;2023-04-26T12:11:47;95779.19;;;12.13;100.00
21658;BME280;10990;48.174;9.782;2023-04-26T12:14:15;95775.97;;;12.69;100.00
21658;BME280;10990;48.174;9.782;2023-04-26T12:16:42;95772.19;;;12.72;100.00
21658;BME280;10990;48.174;9.782;2023-04-26T12:19:10;95764.03;;;12.65;100.00
21658;BME280;10990;48.174;9.782;2023-04-26T12:21:40;95767.41;;;13.42;100.00
21658;BME280;10990;48.174;9.782;2023-04-26T12:24:22;95758.34;;;13.02;100.00
21658;BME280;10990;48.174;9.782;2023-04-26T12:26:49;95768.44;;;12.48;100.00
21658;BME280;10990;48.174;9.782;2023-04-26T12:29:15;95755.38;;;13.14;100.00
21658;BME280;10990;48.174;9.782;2023-04-26T12:31:42;95756.22;;;13.14;100.00
21658;BME280;10990;48.174;9.782;2023-04-26T12:34:10;95753.88;;;13.11;100.00
21658;BME280;10990;48.174;9.782;2023-04-26T12:36:39;95745.81;;;13.29;100.00
21658;BME280;10990;48.174;9.782;2023-04-26T12:39:06;95742.50;;;13.68;100.00
21658;BME280;10990;48.174;9.782;2023-04-26T12:41:32;95748.38;;;12.96;100.00
21658;BME280;10990;48.174;9.782;2023-04-26T12:43:59;95742.34;;;12.36;100.00
21658;BME280;10990;48.174;9.782;2023-04-26T12:46:26;95741.28;;;12.54;100.00
21658;BME280;10990;48.174;9.782;2023-04-26T12:48:53;95744.97;;;12.62;100.00
21658;BME280;10990;48.174;9.782;2023-04-26T12:51:21;95753.81;;;12.44;100.00
21658;BME280;10990;48.174;9.782;2023-04-26T12:53:48;95747.13;;;12.32;100.00
21658;BME280;10990;48.174;9.782;2023-04-26T12:56:15;95734.16;;;12.63;100.00
21658;BME280;10990;48.174;9.782;2023-04-26T12:58:42;95741.91;;;12.91;100.00
21658;BME280;10990;48.174;9.782;2023-04-26T13:01:11;95733.53;;;13.36;100.00
21658;BME280;10990;48.174;9.782;2023-04-26T13:03:38;95735.84;;;13.39;100.00
21658;BME280;10990;48.174;9.782;2023-04-26T13:06:05;95741.44;;;13.04;100.00
21658;BME280;10990;48.174;9.782;2023-04-26T13:08:34;95736.72;;;12.89;100.00
21658;BME280;10990;48.174;9.782;2023-04-26T13:11:00;95739.25;;;12.91;100.00